createdAt,value
2023-04-04T00:00:12.062Z,92909.00
2023-04-04T00:01:12.106Z,92909.00
2023-04-04T00:02:12.129Z,92909.00
2023-04-04T00:03:12.261Z,92907.00
2023-04-04T00:04:13.037Z,92909.00
2023-04-04T00:05:12.134Z,92909.00
2023-04-04T00:06:12.161Z,92907.00
2023-04-04T00:07:12.172Z,92905.00
2023-04-04T00:08:12.196Z,92905.00
2023-04-04T00:09:12.191Z,92905.00
2023-04-04T00:10:12.193Z,92907.00
2023-04-04T00:11:12.197Z,92907.00
2023-04-04T00:12:12.206Z,92905.00
2023-04-04T00:13:12.232Z,92907.00
2023-04-04T00:14:12.221Z,92907.00
2023-04-04T00:15:12.291Z,92899.00
2023-04-04T00:16:12.293Z,92897.00
2023-04-04T00:17:12.267Z,92897.00
2023-04-04T00:18:12.293Z,92893.00
2023-04-04T00:19:12.287Z,92890.00
2023-04-04T00:20:12.305Z,92892.00
2023-04-04T00:21:12.333Z,92892.00
2023-04-04T00:22:12.333Z,92892.00
2023-04-04T00:23:12.344Z,92892.00
2023-04-04T00:24:12.440Z,92890.00
2023-04-04T00:25:12.382Z,92890.00
2023-04-04T00:26:12.393Z,92890.00
2023-04-04T00:27:12.389Z,92890.00
2023-04-04T00:28:12.415Z,92886.00
2023-04-04T00:29:12.430Z,92888.00
2023-04-04T00:30:12.476Z,92884.00
2023-04-04T00:31:12.525Z,92884.00
2023-04-04T00:32:12.556Z,92878.00
2023-04-04T00:33:12.602Z,92882.00
2023-04-04T00:34:12.610Z,92880.00
2023-04-04T00:35:12.631Z,92880.00
2023-04-04T00:36:12.677Z,92882.00
2023-04-04T00:37:12.644Z,92882.00
2023-04-04T00:38:12.647Z,92884.00
2023-04-04T00:39:12.691Z,92886.00
2023-04-04T00:40:12.742Z,92886.00
2023-04-04T00:41:12.728Z,92886.00
2023-04-04T00:42:12.764Z,92888.00
2023-04-04T00:43:12.771Z,92884.00
2023-04-04T00:44:12.783Z,92886.00
2023-04-04T00:45:12.798Z,92884.00
2023-04-04T00:46:12.908Z,92880.00
2023-04-04T00:47:12.831Z,92886.00
2023-04-04T00:48:13.020Z,92882.00
2023-04-04T00:49:12.856Z,92882.00
2023-04-04T00:50:12.869Z,92882.00
2023-04-04T00:51:12.872Z,92880.00
2023-04-04T00:52:12.887Z,92876.00
2023-04-04T00:53:12.933Z,92876.00
2023-04-04T00:54:13.012Z,92878.00
2023-04-04T00:55:13.039Z,92878.00
2023-04-04T00:56:12.983Z,92878.00
2023-04-04T00:57:13.016Z,92876.00
2023-04-04T00:58:13.020Z,92870.00
2023-04-04T00:59:13.092Z,92870.00
2023-04-04T01:00:13.056Z,92876.00
2023-04-04T01:01:13.095Z,92872.00
2023-04-04T01:02:13.081Z,92874.00
2023-04-04T01:03:13.100Z,92872.00
2023-04-04T01:04:13.193Z,92872.00
2023-04-04T01:05:13.130Z,92872.00
2023-04-04T01:06:13.155Z,92872.00
2023-04-04T01:07:13.139Z,92874.00
2023-04-04T01:08:13.216Z,92878.00
2023-04-04T01:09:13.156Z,92876.00
2023-04-04T01:10:13.198Z,92876.00
2023-04-04T01:11:13.171Z,92876.00
2023-04-04T01:12:13.175Z,92878.00
2023-04-04T01:13:13.223Z,92874.00
2023-04-04T01:14:13.262Z,92874.00
2023-04-04T01:15:13.288Z,92870.00
2023-04-04T01:16:13.369Z,92870.00
2023-04-04T01:17:13.348Z,92876.00
2023-04-04T01:18:13.357Z,92872.00
2023-04-04T01:19:13.386Z,92874.00
2023-04-04T01:20:13.431Z,92874.00
2023-04-04T01:21:13.430Z,92872.00
2023-04-04T01:22:13.398Z,92868.00
2023-04-04T01:23:13.461Z,92866.00
2023-04-04T01:24:13.470Z,92868.00
2023-04-04T01:25:14.068Z,92866.00
2023-04-04T01:26:13.478Z,92868.00
2023-04-04T01:27:13.487Z,92868.00
2023-04-04T01:28:13.502Z,92868.00
2023-04-04T01:29:13.522Z,92864.00
2023-04-04T01:30:13.535Z,92866.00
2023-04-04T01:31:13.593Z,92866.00
2023-04-04T01:32:13.540Z,92868.00
2023-04-04T01:33:13.553Z,92866.00
2023-04-04T01:34:13.562Z,92866.00
2023-04-04T01:35:13.573Z,92864.00
2023-04-04T01:36:15.155Z,92868.00
2023-04-04T01:37:13.604Z,92864.00
2023-04-04T01:38:13.658Z,92864.00
2023-04-04T01:39:13.623Z,92860.00
2023-04-04T01:40:13.646Z,92860.00
2023-04-04T01:41:13.667Z,92858.00
2023-04-04T01:42:14.565Z,92860.00
2023-04-04T01:43:13.690Z,92860.00
2023-04-04T01:44:13.689Z,92862.00
2023-04-04T01:45:13.702Z,92862.00
2023-04-04T01:46:13.722Z,92860.00
2023-04-04T01:47:13.708Z,92860.00
2023-04-04T01:48:13.729Z,92856.00
2023-04-04T01:49:13.795Z,92858.00
2023-04-04T01:50:13.774Z,92860.00
2023-04-04T01:51:13.804Z,92860.00
2023-04-04T01:52:13.774Z,92860.00
2023-04-04T01:53:13.803Z,92860.00
2023-04-04T01:54:13.803Z,92864.00
2023-04-04T01:55:13.818Z,92862.00
2023-04-04T01:56:13.814Z,92858.00
2023-04-04T01:57:13.815Z,92858.00
2023-04-04T01:58:13.823Z,92856.00
2023-04-04T01:59:13.876Z,92856.00
2023-04-04T02:00:13.877Z,92854.00
2023-04-04T02:01:13.883Z,92858.00
2023-04-04T02:02:13.891Z,92858.00
2023-04-04T02:03:13.891Z,92854.00
2023-04-04T02:04:13.922Z,92854.00
2023-04-04T02:05:14.060Z,92856.00
2023-04-04T02:06:13.961Z,92856.00
2023-04-04T02:07:13.974Z,92858.00
2023-04-04T02:08:13.996Z,92856.00
2023-04-04T02:09:13.998Z,92854.00
2023-04-04T02:10:14.032Z,92858.00
2023-04-04T02:11:14.053Z,92847.00
2023-04-04T02:12:14.060Z,92856.00
2023-04-04T02:13:14.057Z,92854.00
2023-04-04T02:14:14.092Z,92847.00
2023-04-04T02:15:14.138Z,92847.00
2023-04-04T02:16:14.131Z,92847.00
2023-04-04T02:17:14.139Z,92845.00
2023-04-04T02:18:14.154Z,92845.00
2023-04-04T02:19:14.174Z,92854.00
2023-04-04T02:20:14.194Z,92841.00
2023-04-04T02:21:14.261Z,92841.00
2023-04-04T02:22:14.209Z,92839.00
2023-04-04T02:23:14.234Z,92841.00
2023-04-04T02:24:14.233Z,92841.00
2023-04-04T02:25:14.249Z,92843.00
2023-04-04T02:26:14.277Z,92843.00
2023-04-04T02:27:14.275Z,92845.00
2023-04-04T02:28:14.298Z,92847.00
2023-04-04T02:29:14.326Z,92841.00
2023-04-04T02:30:14.404Z,92847.00
2023-04-04T02:31:14.391Z,92854.00
2023-04-04T02:32:14.354Z,92847.00
2023-04-04T02:33:14.342Z,92854.00
2023-04-04T02:34:14.367Z,92845.00
2023-04-04T02:35:14.364Z,92845.00
2023-04-04T02:36:14.422Z,92847.00
2023-04-04T02:37:14.383Z,92847.00
2023-04-04T02:38:14.402Z,92843.00
2023-04-04T02:39:14.453Z,92847.00
2023-04-04T02:40:14.419Z,92845.00
2023-04-04T02:41:14.415Z,92845.00
2023-04-04T02:42:14.484Z,92845.00
2023-04-04T02:43:14.448Z,92845.00
2023-04-04T02:44:14.443Z,92845.00
2023-04-04T02:45:14.514Z,92845.00
2023-04-04T02:46:21.701Z,92845.00
2023-04-04T02:47:15.481Z,92847.00
2023-04-04T02:48:14.448Z,92847.00
2023-04-04T02:49:14.485Z,92858.00
2023-04-04T02:50:14.459Z,92845.00
2023-04-04T02:51:14.430Z,92845.00
2023-04-04T02:52:14.429Z,92845.00
2023-04-04T02:53:14.430Z,92854.00
2023-04-04T02:54:14.426Z,92847.00
2023-04-04T02:55:14.408Z,92845.00
2023-04-04T02:56:14.404Z,92847.00
2023-04-04T02:57:14.452Z,92845.00
2023-04-04T02:58:14.387Z,92843.00
2023-04-04T02:59:14.438Z,92843.00
2023-04-04T03:00:14.391Z,92843.00
2023-04-04T03:01:14.407Z,92843.00
2023-04-04T03:02:14.474Z,92841.00
2023-04-04T03:03:14.479Z,92843.00
2023-04-04T03:04:14.425Z,92845.00
2023-04-04T03:05:14.363Z,92843.00
2023-04-04T03:06:14.363Z,92845.00
2023-04-04T03:07:14.358Z,92843.00
2023-04-04T03:08:14.357Z,92843.00
2023-04-04T03:09:14.357Z,92845.00
2023-04-04T03:10:14.363Z,92845.00
2023-04-04T03:11:14.454Z,92843.00
2023-04-04T03:12:14.339Z,92841.00
2023-04-04T03:13:14.341Z,92843.00
2023-04-04T03:14:14.350Z,92843.00
2023-04-04T03:15:14.356Z,92841.00
2023-04-04T03:16:14.409Z,92841.00
2023-04-04T03:17:14.380Z,92845.00
2023-04-04T03:18:14.429Z,92841.00
2023-04-04T03:19:14.410Z,92843.00
2023-04-04T03:20:14.430Z,92841.00
2023-04-04T03:21:14.443Z,92841.00
2023-04-04T03:22:14.458Z,92843.00
2023-04-04T03:23:14.460Z,92839.00
2023-04-04T03:24:14.452Z,92837.00
2023-04-04T03:25:14.458Z,92839.00
2023-04-04T03:26:14.464Z,92841.00
2023-04-04T03:27:14.478Z,92841.00
2023-04-04T03:28:14.477Z,92841.00
2023-04-04T03:29:14.520Z,92841.00
2023-04-04T03:30:14.500Z,92841.00
2023-04-04T03:31:14.506Z,92839.00
2023-04-04T03:32:14.498Z,92837.00
2023-04-04T03:33:14.525Z,92837.00
2023-04-04T03:34:14.650Z,92835.00
2023-04-04T03:35:14.553Z,92835.00
2023-04-04T03:36:14.605Z,92835.00
2023-04-04T03:37:14.556Z,92833.00
2023-04-04T03:38:14.577Z,92835.00
2023-04-04T03:39:14.575Z,92833.00
2023-04-04T03:40:14.622Z,92833.00
2023-04-04T03:41:14.580Z,92833.00
2023-04-04T03:42:14.590Z,92833.00
2023-04-04T03:43:14.615Z,92831.00
2023-04-04T03:44:14.638Z,92831.00
2023-04-04T03:45:14.647Z,92829.00
2023-04-04T03:46:14.680Z,92831.00
2023-04-04T03:47:14.670Z,92831.00
2023-04-04T03:48:14.679Z,92831.00
2023-04-04T03:49:14.690Z,92831.00
2023-04-04T03:50:14.722Z,92831.00
2023-04-04T03:51:14.734Z,92833.00
2023-04-04T03:52:14.725Z,92833.00
2023-04-04T03:53:14.737Z,92835.00
2023-04-04T03:54:16.079Z,92835.00
2023-04-04T03:55:14.770Z,92835.00
2023-04-04T03:56:14.816Z,92835.00
2023-04-04T03:57:14.803Z,92839.00
2023-04-04T03:58:14.823Z,92837.00
2023-04-04T03:59:14.901Z,92841.00
2023-04-04T04:00:14.828Z,92839.00
2023-04-04T04:01:14.850Z,92843.00
2023-04-04T04:02:14.859Z,92845.00
2023-04-04T04:03:16.984Z,92845.00
2023-04-04T04:04:14.965Z,92847.00
2023-04-04T04:05:14.906Z,92856.00
2023-04-04T04:06:15.613Z,92860.00
2023-04-04T04:07:14.927Z,92860.00
2023-04-04T04:08:14.924Z,92860.00
2023-04-04T04:09:14.936Z,92862.00
2023-04-04T04:10:15.081Z,92860.00
2023-04-04T04:11:14.937Z,92860.00
2023-04-04T04:12:14.948Z,92856.00
2023-04-04T04:13:14.959Z,92860.00
2023-04-04T04:14:14.959Z,92858.00
2023-04-04T04:15:14.980Z,92860.00
2023-04-04T04:16:15.040Z,92864.00
2023-04-04T04:17:14.999Z,92864.00
2023-04-04T04:18:14.997Z,92868.00
2023-04-04T04:19:14.997Z,92866.00
2023-04-04T04:20:15.011Z,92868.00
2023-04-04T04:21:15.028Z,92866.00
2023-04-04T04:22:15.033Z,92868.00
2023-04-04T04:23:15.037Z,92868.00
2023-04-04T04:24:15.046Z,92868.00
2023-04-04T04:25:15.058Z,92868.00
2023-04-04T04:26:15.062Z,92870.00
2023-04-04T04:27:15.078Z,92870.00
2023-04-04T04:28:15.091Z,92872.00
2023-04-04T04:29:16.095Z,92868.00
2023-04-04T04:30:15.133Z,92872.00
2023-04-04T04:31:15.154Z,92872.00
2023-04-04T04:32:15.146Z,92870.00
2023-04-04T04:33:15.241Z,92870.00
2023-04-04T04:34:15.153Z,92868.00
2023-04-04T04:35:15.231Z,92872.00
2023-04-04T04:36:15.208Z,92870.00
2023-04-04T04:37:15.179Z,92872.00
2023-04-04T04:38:15.180Z,92874.00
2023-04-04T04:39:15.189Z,92872.00
2023-04-04T04:40:15.202Z,92872.00
2023-04-04T04:41:15.212Z,92872.00
2023-04-04T04:42:15.226Z,92872.00
2023-04-04T04:43:15.293Z,92872.00
2023-04-04T04:44:15.243Z,92872.00
2023-04-04T04:45:15.248Z,92872.00
2023-04-04T04:46:15.279Z,92874.00
2023-04-04T04:47:15.248Z,92872.00
2023-04-04T04:48:16.169Z,92874.00
2023-04-04T04:49:15.320Z,92872.00
2023-04-04T04:50:15.288Z,92874.00
2023-04-04T04:51:16.102Z,92876.00
2023-04-04T04:52:15.315Z,92878.00
2023-04-04T04:53:15.422Z,92878.00
2023-04-04T04:54:15.324Z,92878.00
2023-04-04T04:55:15.327Z,92882.00
2023-04-04T04:56:15.334Z,92882.00
2023-04-04T04:57:15.340Z,92880.00
2023-04-04T04:58:15.974Z,92882.00
2023-04-04T04:59:15.406Z,92880.00
2023-04-04T05:00:15.359Z,92884.00
2023-04-04T05:01:15.409Z,92884.00
2023-04-04T05:02:15.370Z,92880.00
2023-04-04T05:03:15.446Z,92888.00
2023-04-04T05:04:16.366Z,92888.00
2023-04-04T05:05:15.372Z,92890.00
2023-04-04T05:06:15.373Z,92886.00
2023-04-04T05:07:15.364Z,92886.00
2023-04-04T05:08:15.364Z,92888.00
2023-04-04T05:09:15.372Z,92890.00
2023-04-04T05:10:15.372Z,92893.00
2023-04-04T05:11:15.374Z,92888.00
2023-04-04T05:12:15.379Z,92888.00
2023-04-04T05:13:15.378Z,92888.00
2023-04-04T05:14:15.380Z,92890.00
2023-04-04T05:15:15.385Z,92890.00
2023-04-04T05:16:15.454Z,92892.00
2023-04-04T05:17:15.390Z,92892.00
2023-04-04T05:18:15.404Z,92890.00
2023-04-04T05:19:15.491Z,92893.00
2023-04-04T05:20:15.450Z,92893.00
2023-04-04T05:21:15.406Z,92893.00
2023-04-04T05:22:15.401Z,92893.00
2023-04-04T05:23:15.415Z,92899.00
2023-04-04T05:24:15.413Z,92897.00
2023-04-04T05:25:15.422Z,92899.00
2023-04-04T05:26:15.423Z,92899.00
2023-04-04T05:27:15.522Z,92901.00
2023-04-04T05:28:15.490Z,92901.00
2023-04-04T05:29:15.469Z,92903.00
2023-04-04T05:30:15.436Z,92901.00
2023-04-04T05:31:15.456Z,92901.00
2023-04-04T05:32:15.506Z,92901.00
2023-04-04T05:33:15.449Z,92899.00
2023-04-04T05:34:15.437Z,92901.00
2023-04-04T05:35:15.432Z,92901.00
2023-04-04T05:36:15.707Z,92901.00
2023-04-04T05:37:15.444Z,92899.00
2023-04-04T05:38:15.443Z,92901.00
2023-04-04T05:39:15.436Z,92903.00
2023-04-04T05:40:15.430Z,92901.00
2023-04-04T05:41:15.441Z,92903.00
2023-04-04T05:42:15.446Z,92909.00
2023-04-04T05:43:15.521Z,92901.00
2023-04-04T05:44:15.449Z,92905.00
2023-04-04T05:45:15.438Z,92903.00
2023-04-04T05:46:15.460Z,92907.00
2023-04-04T05:47:15.521Z,92907.00
2023-04-04T05:48:15.439Z,92907.00
2023-04-04T05:49:15.465Z,92909.00
2023-04-04T05:50:15.441Z,92907.00
2023-04-04T05:51:15.439Z,92907.00
2023-04-04T05:52:15.495Z,92909.00
2023-04-04T05:53:15.462Z,92917.00
2023-04-04T05:54:15.482Z,92909.00
2023-04-04T05:55:15.491Z,92911.00
2023-04-04T05:56:15.503Z,92915.00
2023-04-04T05:57:15.521Z,92917.00
2023-04-04T05:58:15.616Z,92919.00
2023-04-04T05:59:15.585Z,92913.00
2023-04-04T06:00:15.588Z,92917.00
2023-04-04T06:01:15.602Z,92917.00
2023-04-04T06:02:15.629Z,92921.00
2023-04-04T06:03:15.658Z,92917.00
2023-04-04T06:04:15.653Z,92923.00
2023-04-04T06:05:15.660Z,92919.00
2023-04-04T06:06:15.693Z,92917.00
2023-04-04T06:07:15.681Z,92923.00
2023-04-04T06:08:15.674Z,92925.00
2023-04-04T06:09:15.707Z,92923.00
2023-04-04T06:10:15.711Z,92923.00
2023-04-04T06:11:15.712Z,92923.00
2023-04-04T06:12:15.743Z,92927.00
2023-04-04T06:13:15.760Z,92927.00
2023-04-04T06:14:15.766Z,92925.00
2023-04-04T06:15:15.776Z,92923.00
2023-04-04T06:16:15.869Z,92927.00
2023-04-04T06:17:15.806Z,92923.00
2023-04-04T06:18:15.817Z,92923.00
2023-04-04T06:19:15.881Z,92923.00
2023-04-04T06:20:15.810Z,92921.00
2023-04-04T06:21:15.837Z,92921.00
2023-04-04T06:22:15.855Z,92919.00
2023-04-04T06:23:15.922Z,92917.00
2023-04-04T06:24:15.871Z,92921.00
2023-04-04T06:25:15.886Z,92923.00
2023-04-04T06:26:15.954Z,92923.00
2023-04-04T06:27:15.919Z,92921.00
2023-04-04T06:28:15.964Z,92921.00
2023-04-04T06:29:15.953Z,92921.00
2023-04-04T06:30:15.951Z,92921.00
2023-04-04T06:31:16.024Z,92921.00
2023-04-04T06:32:15.987Z,92921.00
2023-04-04T06:33:15.998Z,92921.00
2023-04-04T06:34:16.036Z,92917.00
2023-04-04T06:35:18.125Z,92919.00
2023-04-04T06:36:16.115Z,92923.00
2023-04-04T06:37:16.076Z,92923.00
2023-04-04T06:38:16.070Z,92921.00
2023-04-04T06:39:16.078Z,92919.00
2023-04-04T06:40:16.634Z,92921.00
2023-04-04T06:41:16.099Z,92921.00
2023-04-04T06:42:16.100Z,92919.00
2023-04-04T06:43:16.123Z,92921.00
2023-04-04T06:44:16.113Z,92921.00
2023-04-04T06:45:16.101Z,92921.00
2023-04-04T06:46:16.210Z,92921.00
2023-04-04T06:47:16.105Z,92921.00
2023-04-04T06:48:16.094Z,92919.00
2023-04-04T06:49:16.095Z,92919.00
2023-04-04T06:50:16.089Z,92919.00
2023-04-04T06:51:16.090Z,92919.00
2023-04-04T06:52:16.161Z,92917.00
2023-04-04T06:53:16.079Z,92913.00
2023-04-04T06:54:16.074Z,92915.00
2023-04-04T06:55:16.085Z,92913.00
2023-04-04T06:56:16.081Z,92915.00
2023-04-04T06:57:16.084Z,92915.00
2023-04-04T06:58:16.100Z,92915.00
2023-04-04T06:59:16.093Z,92913.00
2023-04-04T07:00:16.107Z,92911.00
2023-04-04T07:01:16.229Z,92913.00
2023-04-04T07:02:16.159Z,92915.00
2023-04-04T07:03:16.140Z,92911.00
2023-04-04T07:04:16.197Z,92915.00
2023-04-04T07:05:16.126Z,92913.00
2023-04-04T07:06:16.158Z,92915.00
2023-04-04T07:07:16.136Z,92913.00
2023-04-04T07:08:16.146Z,92911.00
2023-04-04T07:09:27.951Z,92915.00
2023-04-04T07:10:17.178Z,92911.00
2023-04-04T07:11:16.170Z,92913.00
2023-04-04T07:12:16.187Z,92913.00
2023-04-04T07:13:16.191Z,92915.00
2023-04-04T07:14:16.198Z,92913.00
2023-04-04T07:15:16.200Z,92915.00
2023-04-04T07:16:16.266Z,92913.00
2023-04-04T07:18:16.239Z,92915.00
2023-04-04T07:19:16.236Z,92911.00
2023-04-04T07:20:16.252Z,92913.00
2023-04-04T07:21:16.254Z,92913.00
2023-04-04T07:22:16.257Z,92915.00
2023-04-04T07:23:16.296Z,92915.00
2023-04-04T07:24:16.270Z,92915.00
2023-04-04T07:25:16.316Z,92915.00
2023-04-04T07:26:16.356Z,92915.00
2023-04-04T07:27:16.465Z,92917.00
2023-04-04T07:28:16.493Z,92915.00
2023-04-04T07:29:16.544Z,92917.00
2023-04-04T07:30:16.623Z,92913.00
2023-04-04T07:31:16.741Z,92911.00
2023-04-04T07:32:16.752Z,92915.00
2023-04-04T07:33:17.058Z,92909.00
2023-04-04T07:34:16.909Z,92911.00
2023-04-04T07:35:16.972Z,92911.00
2023-04-04T07:36:17.006Z,92911.00
2023-04-04T07:37:17.059Z,92907.00
2023-04-04T07:38:17.118Z,92905.00
2023-04-04T07:39:17.175Z,92907.00
2023-04-04T07:40:18.169Z,92907.00
2023-04-04T07:41:17.300Z,92905.00
2023-04-04T07:42:17.350Z,92909.00
2023-04-04T07:43:17.683Z,92905.00
2023-04-04T07:44:17.483Z,92905.00
2023-04-04T07:45:17.528Z,92905.00
2023-04-04T07:46:17.658Z,92907.00
2023-04-04T07:47:17.635Z,92905.00
2023-04-04T07:48:19.283Z,92909.00
2023-04-04T07:49:17.721Z,92909.00
2023-04-04T07:50:17.812Z,92911.00
2023-04-04T07:51:17.797Z,92909.00
2023-04-04T07:52:17.844Z,92907.00
2023-04-04T07:53:17.895Z,92907.00
2023-04-04T07:54:17.950Z,92911.00
2023-04-04T07:55:17.983Z,92909.00
2023-04-04T07:56:18.023Z,92909.00
2023-04-04T07:57:18.054Z,92913.00
2023-04-04T07:58:20.851Z,92905.00
2023-04-04T07:59:18.107Z,92907.00
2023-04-04T08:00:18.070Z,92905.00
2023-04-04T08:01:18.671Z,92909.00
2023-04-04T08:02:18.094Z,92907.00
2023-04-04T08:03:18.155Z,92905.00
2023-04-04T08:04:18.130Z,92909.00
2023-04-04T08:05:18.059Z,92907.00
2023-04-04T08:06:18.065Z,92905.00
2023-04-04T08:07:18.045Z,92905.00
2023-04-04T08:08:18.043Z,92903.00
2023-04-04T08:09:18.771Z,92903.00
2023-04-04T08:10:18.075Z,92905.00
2023-04-04T08:11:18.026Z,92901.00
2023-04-04T08:12:18.038Z,92901.00
2023-04-04T08:13:18.025Z,92899.00
2023-04-04T08:14:18.009Z,92897.00
2023-04-04T08:15:18.015Z,92899.00
2023-04-04T08:16:18.016Z,92899.00
2023-04-04T08:17:18.006Z,92897.00
2023-04-04T08:18:17.975Z,92899.00
2023-04-04T08:19:17.961Z,92901.00
2023-04-04T08:20:17.964Z,92897.00
2023-04-04T08:21:17.945Z,92893.00
2023-04-04T08:22:17.957Z,92897.00
2023-04-04T08:23:17.934Z,92895.00
2023-04-04T08:24:17.912Z,92893.00
2023-04-04T08:25:17.911Z,92893.00
2023-04-04T08:26:17.903Z,92892.00
2023-04-04T08:27:17.892Z,92888.00
2023-04-04T08:28:17.942Z,92888.00
2023-04-04T08:29:17.873Z,92890.00
2023-04-04T08:30:17.863Z,92890.00
2023-04-04T08:31:17.878Z,92888.00
2023-04-04T08:32:17.842Z,92892.00
2023-04-04T08:33:17.887Z,92888.00
2023-04-04T08:34:17.838Z,92886.00
2023-04-04T08:35:18.678Z,92884.00
2023-04-04T08:36:17.801Z,92884.00
2023-04-04T08:37:17.782Z,92878.00
2023-04-04T08:38:17.768Z,92882.00
2023-04-04T08:39:17.756Z,92878.00
2023-04-04T08:40:17.740Z,92878.00
2023-04-04T08:41:17.732Z,92872.00
2023-04-04T08:42:17.768Z,92872.00
2023-04-04T08:43:17.706Z,92872.00
2023-04-04T08:44:17.696Z,92874.00
2023-04-04T08:45:17.681Z,92870.00
2023-04-04T08:46:17.691Z,92872.00
2023-04-04T08:47:17.668Z,92874.00
2023-04-04T08:48:17.658Z,92872.00
2023-04-04T08:49:17.709Z,92870.00
2023-04-04T08:50:17.637Z,92872.00
2023-04-04T08:51:17.623Z,92872.00
2023-04-04T08:52:17.641Z,92874.00
2023-04-04T08:53:17.605Z,92870.00
2023-04-04T08:54:17.588Z,92872.00
2023-04-04T08:55:17.574Z,92870.00
2023-04-04T08:56:17.557Z,92870.00
2023-04-04T08:57:17.553Z,92868.00
2023-04-04T08:58:17.518Z,92868.00
2023-04-04T08:59:17.562Z,92864.00
2023-04-04T09:00:17.555Z,92870.00
2023-04-04T09:01:17.505Z,92864.00
2023-04-04T09:02:17.560Z,92864.00
2023-04-04T09:03:17.578Z,92862.00
2023-04-04T09:04:17.532Z,92864.00
2023-04-04T09:05:17.553Z,92866.00
2023-04-04T09:06:17.584Z,92864.00
2023-04-04T09:07:17.615Z,92860.00
2023-04-04T09:08:17.650Z,92864.00
2023-04-04T09:09:17.685Z,92864.00
2023-04-04T09:10:17.726Z,92864.00
2023-04-04T09:11:17.774Z,92862.00
2023-04-04T09:12:17.820Z,92862.00
2023-04-04T09:13:17.856Z,92860.00
2023-04-04T09:14:17.901Z,92854.00
2023-04-04T09:15:17.941Z,92847.00
2023-04-04T09:16:17.986Z,92847.00
2023-04-04T09:17:18.035Z,92847.00
2023-04-04T09:18:18.121Z,92847.00
2023-04-04T09:19:18.124Z,92843.00
2023-04-04T09:20:18.155Z,92845.00
2023-04-04T09:21:18.197Z,92845.00
2023-04-04T09:22:18.235Z,92841.00
2023-04-04T09:23:18.280Z,92843.00
2023-04-04T09:24:18.306Z,92845.00
2023-04-04T09:25:18.349Z,92837.00
2023-04-04T09:26:18.362Z,92837.00
2023-04-04T09:27:18.395Z,92837.00
2023-04-04T09:28:18.423Z,92837.00
2023-04-04T09:29:18.460Z,92837.00
2023-04-04T09:30:18.482Z,92835.00
2023-04-04T09:31:18.524Z,92833.00
2023-04-04T09:32:18.671Z,92833.00
2023-04-04T09:33:18.583Z,92837.00
2023-04-04T09:34:18.619Z,92833.00
2023-04-04T09:35:18.642Z,92835.00
2023-04-04T09:36:18.753Z,92835.00
2023-04-04T09:37:18.748Z,92829.00
2023-04-04T09:38:18.734Z,92831.00
2023-04-04T09:39:18.763Z,92829.00
2023-04-04T09:40:18.828Z,92827.00
2023-04-04T09:41:18.855Z,92827.00
2023-04-04T09:42:18.847Z,92825.00
2023-04-04T09:43:18.870Z,92827.00
2023-04-04T09:44:18.907Z,92817.00
2023-04-04T09:45:29.703Z,92821.00
2023-04-04T09:46:19.918Z,92821.00
2023-04-04T09:47:29.880Z,92821.00
2023-04-04T09:48:20.827Z,92825.00
2023-04-04T09:49:18.868Z,92819.00
2023-04-04T09:50:18.849Z,92823.00
2023-04-04T09:51:18.855Z,92817.00
2023-04-04T09:52:18.815Z,92819.00
2023-04-04T09:53:18.873Z,92816.00
2023-04-04T09:54:28.713Z,92819.00
2023-04-04T09:55:19.771Z,92816.00
2023-04-04T09:56:18.752Z,92814.00
2023-04-04T09:57:18.727Z,92812.00
2023-04-04T09:58:18.711Z,92812.00
2023-04-04T09:59:19.273Z,92810.00
2023-04-04T10:00:18.815Z,92808.00
2023-04-04T10:01:18.704Z,92806.00
2023-04-04T10:02:18.646Z,92806.00
2023-04-04T10:03:18.629Z,92800.00
2023-04-04T10:04:18.683Z,92800.00
2023-04-04T10:05:18.582Z,92804.00
2023-04-04T10:06:18.573Z,92802.00
2023-04-04T10:07:18.571Z,92804.00
2023-04-04T10:08:18.561Z,92802.00
2023-04-04T10:09:18.525Z,92800.00
2023-04-04T10:10:18.529Z,92796.00
2023-04-04T10:11:18.543Z,92794.00
2023-04-04T10:12:18.558Z,92792.00
2023-04-04T10:13:18.987Z,92794.00
2023-04-04T10:14:18.602Z,92800.00
2023-04-04T10:15:18.646Z,92792.00
2023-04-04T10:16:18.689Z,92790.00
2023-04-04T10:17:18.651Z,92784.00
2023-04-04T10:18:18.650Z,92786.00
2023-04-04T10:19:18.667Z,92786.00
2023-04-04T10:20:18.684Z,92778.00
2023-04-04T10:21:18.709Z,92780.00
2023-04-04T10:22:18.714Z,92782.00
2023-04-04T10:23:18.729Z,92778.00
2023-04-04T10:24:18.736Z,92778.00
2023-04-04T10:25:18.762Z,92772.00
2023-04-04T10:26:18.782Z,92774.00
2023-04-04T10:27:18.791Z,92772.00
2023-04-04T10:28:18.821Z,92774.00
2023-04-04T10:29:18.838Z,92767.00
2023-04-04T10:30:18.848Z,92765.00
2023-04-04T10:31:18.885Z,92765.00
2023-04-04T10:32:18.868Z,92759.00
2023-04-04T10:33:18.875Z,92759.00
2023-04-04T10:34:18.900Z,92763.00
2023-04-04T10:35:18.906Z,92763.00
2023-04-04T10:36:18.957Z,92765.00
2023-04-04T10:37:18.942Z,92763.00
2023-04-04T10:38:18.971Z,92759.00
2023-04-04T10:39:18.975Z,92759.00
2023-04-04T10:40:19.000Z,92759.00
2023-04-04T10:41:19.015Z,92755.00
2023-04-04T10:42:19.025Z,92755.00
2023-04-04T10:43:19.036Z,92753.00
2023-04-04T10:44:19.053Z,92755.00
2023-04-04T10:45:21.750Z,92755.00
2023-04-04T10:46:19.050Z,92747.00
2023-04-04T10:47:19.031Z,92745.00
2023-04-04T10:48:19.007Z,92747.00
2023-04-04T10:49:19.007Z,92743.00
2023-04-04T10:50:18.961Z,92743.00
2023-04-04T10:51:18.941Z,92739.00
2023-04-04T10:52:18.926Z,92743.00
2023-04-04T10:53:18.900Z,92739.00
2023-04-04T10:54:18.880Z,92737.00
2023-04-04T10:55:18.842Z,92737.00
2023-04-04T10:56:18.831Z,92737.00
2023-04-04T10:57:18.828Z,92727.00
2023-04-04T10:58:18.787Z,92733.00
2023-04-04T10:59:18.853Z,92733.00
2023-04-04T11:00:18.839Z,92731.00
2023-04-04T11:01:18.779Z,92725.00
2023-04-04T11:02:18.710Z,92731.00
2023-04-04T11:03:18.691Z,92725.00
2023-04-04T11:04:20.596Z,92719.00
2023-04-04T11:05:18.646Z,92725.00
2023-04-04T11:06:18.642Z,92721.00
2023-04-04T11:07:18.622Z,92717.00
2023-04-04T11:08:18.582Z,92717.00
2023-04-04T11:09:18.556Z,92717.00
2023-04-04T11:10:18.687Z,92715.00
2023-04-04T11:11:22.577Z,92717.00
2023-04-04T11:12:18.476Z,92712.00
2023-04-04T11:13:18.515Z,92715.00
2023-04-04T11:14:18.424Z,92712.00
2023-04-04T11:15:18.415Z,92710.00
2023-04-04T11:16:18.411Z,92708.00
2023-04-04T11:17:18.366Z,92714.00
2023-04-04T11:18:32.505Z,92708.00
2023-04-04T11:19:19.332Z,92704.00
2023-04-04T11:20:18.316Z,92708.00
2023-04-04T11:21:18.303Z,92702.00
2023-04-04T11:22:18.282Z,92706.00
2023-04-04T11:23:18.281Z,92704.00
2023-04-04T11:24:18.320Z,92704.00
2023-04-04T11:25:18.352Z,92702.00
2023-04-04T11:26:18.238Z,92702.00
2023-04-04T11:27:18.237Z,92696.00
2023-04-04T11:28:18.263Z,92696.00
2023-04-04T11:29:18.203Z,92690.00
2023-04-04T11:30:18.202Z,92688.00
2023-04-04T11:31:18.413Z,92690.00
2023-04-04T11:32:18.417Z,92686.00
2023-04-04T11:33:18.352Z,92682.00
2023-04-04T11:34:18.341Z,92690.00
2023-04-04T11:35:18.383Z,92686.00
2023-04-04T11:36:18.457Z,92686.00
2023-04-04T11:37:18.459Z,92682.00
2023-04-04T11:38:18.522Z,92680.00
2023-04-04T11:39:18.531Z,92682.00
2023-04-04T11:40:18.614Z,92686.00
2023-04-04T11:41:20.006Z,92684.00
2023-04-04T11:42:18.649Z,92686.00
2023-04-04T11:43:18.682Z,92688.00
2023-04-04T11:44:18.721Z,92690.00
2023-04-04T11:45:18.760Z,92686.00